METAR Data
IDs: Format: Raw Decoded Include TAF

Data at: 0138 UTC 25 Mar 2019

KCKP 250135Z AUTO 02008KT 10SM SCT047 BKN070 OVC085 08/05 A3016 RMK AO2 LTG DSNT SW T00750045
KCKP 250115Z AUTO 03006KT 10SM SCT047 SCT070 OVC085 08/05 A3015 RMK AO2 T00760046
KCKP 250055Z AUTO 02006KT 10SM BKN070 OVC085 08/05 A3014 RMK AO2 T00790047
KCKP 250035Z AUTO 02007KT 10SM OVC070 08/05 A3013 RMK AO2 T00810048
KCKP 250015Z AUTO 02006KT 10SM SCT027 SCT032 OVC070 09/05 A3013 RMK AO2 T00850051
KCKP 242355Z AUTO 02007KT 10SM OVC028 09/05 A3012 RMK AO2 T00900050 10110 20076
KCKP 242335Z AUTO 01012KT 10SM OVC032 10/06 A3011 RMK AO2 T00970057
KCKP 242315Z AUTO 04005KT 10SM BKN028 OVC032 10/06 A3011 RMK AO2 T00980063
KCKP 242255Z AUTO 05007KT 10SM BKN028 OVC034 10/06 A3010 RMK AO2 T01000062
KCKP 242235Z AUTO 04008KT 10SM OVC026 10/06 A3009 RMK AO2 T01020063
KCKP 242215Z AUTO 05006KT 10SM OVC026 10/07 A3009 RMK AO2 T01030066
KCKP 242155Z AUTO 05009KT 10SM OVC024 11/07 A3008 RMK AO2 T01070065
KCKP 242135Z AUTO 04009KT 10SM BKN022 OVC027 11/07 A3008 RMK AO2 T01080065
KCKP 242115Z AUTO 04007G15KT 10SM BKN020 BKN032 OVC060 11/07 A3007 RMK AO2 T01060066
KCKP 242055Z AUTO 04008KT 010V070 10SM SCT018 BKN032 OVC060 10/06 A3006 RMK AO2 T01010064
KCKP 242035Z AUTO 03012G15KT 10SM BKN016 BKN026 OVC031 10/06 A3006 RMK AO2 T01000062
KCKP 242015Z AUTO 04009KT 10SM OVC016 09/06 A3006 RMK AO2 T00900059
KCKP 241955Z AUTO 03008KT 10SM OVC014 09/06 A3006 RMK AO2 T00890060
KCKP 241935Z AUTO 03012G16KT 10SM OVC014 08/06 A3005 RMK AO2 T00840058
KCKP 241915Z AUTO 03013G17KT 10SM OVC012 08/06 A3005 RMK AO2 T00800059
KCKP 241855Z AUTO 03010KT 10SM OVC012 08/06 A3005 RMK AO2 T00780062
KCKP 241835Z AUTO 03014G18KT 10SM OVC012 08/06 A3005 RMK AO2 T00770061
KCKP 241815Z AUTO 03010G16KT 7SM OVC010 08/06 A3005 RMK AO2 T00760064
KCKP 241755Z AUTO 03011KT 7SM OVC010 08/07 A3005 RMK AO2 T00780066 10081 20045
KCKP 241735Z AUTO 04010KT 7SM BKN010 OVC044 08/07 A3005 RMK AO2 T00800069
KCKP 241715Z AUTO 03012G16KT 7SM OVC012 08/07 A3004 RMK AO2 T00800071
KCKP 241655Z AUTO 04010G14KT 7SM BKN007 OVC012 07/07 A3005 RMK AO2 T00680065
KCKP 241635Z AUTO 03010G14KT 5SM BR OVC007 07/07 A3005 RMK AO2 T00660066
KCKP 241615Z AUTO 04008KT 4SM BR OVC005 06/06 A3004 RMK AO2 T00620062
KCKP 241555Z AUTO 04006KT 4SM BR OVC005 06/06 A3004 RMK AO2 T00600060
KCKP 241535Z AUTO 03007KT 4SM BR OVC003 06/06 A3003 RMK AO2 T00560056
KCKP 241515Z AUTO 04003KT 3SM BR OVC003 05/05 A3003 RMK AO2 T00500050
KCKP 241455Z AUTO 02007KT 3SM BR OVC003 05/05 A3003 RMK AO2 T00470047
KCKP 241435Z AUTO 03007KT 3SM BR OVC003 05/05 A3003 RMK AO2 T00470047
KCKP 241415Z AUTO 02006KT 4SM BR OVC003 05/05 A3003 RMK AO2 T00480048
KCKP 241355Z AUTO 04003KT 4SM BR OVC003 05/05 A3003 RMK AO2 T00470047
KCKP 241335Z AUTO 05005KT 4SM BR OVC003 05/05 A3003 RMK AO2 T00450045
KCKP 241315Z AUTO 06006KT 3SM BR OVC003 05/05 A3002 RMK AO2 T00450045
KCKP 241255Z AUTO 04004KT 3SM BR OVC003 05/05 A3001 RMK AO2 T00450045
KCKP 241235Z AUTO 05004KT 4SM BR OVC003 05/05 A3001 RMK AO2 T00450045
KCKP 241215Z AUTO 05005KT 7SM BKN003 BKN015 OVC022 05/05 A3000 RMK AO2 T00450045
KCKP 241155Z AUTO 06006KT 5SM BR BKN003 OVC015 05/05 A3000 RMK AO2 T00450045 10061 20045
KCKP 241135Z AUTO 04005KT 5SM BR BKN003 OVC016 05/05 A2999 RMK AO2 T00450045
KCKP 241115Z AUTO 04005KT 4SM -RA OVC003 05/05 A3000 RMK AO2 T00450045
KCKP 241055Z AUTO 04003KT 4SM DZ OVC003 05/05 A3000 RMK AO2 T00450045
KCKP 241035Z AUTO 03003KT 4SM DZ SCT003 OVC016 05/05 A2999 RMK AO2 T00470047
KCKP 241015Z AUTO 06006KT 3SM DZ OVC016 05/05 A2999 RMK AO2 T00480048
KCKP 240955Z AUTO 08008KT 3SM DZ OVC016 05/05 A2999 RMK AO2 T00470047
KCKP 240935Z AUTO 06005KT 4SM DZ OVC016 05/05 A3000 RMK AO2 T00470047
KCKP 240915Z AUTO 06008KT 4SM DZ OVC018 05/05 A3000 RMK AO2 T00480048
KCKP 240855Z AUTO 06006KT 4SM DZ OVC020 05/05 A3001 RMK AO2 T00500048
KCKP 240835Z AUTO 06005KT 5SM DZ BKN020 OVC026 05/05 A3001 RMK AO2 T00510047
KCKP 240815Z AUTO 06006KT 5SM DZ OVC024 05/05 A3001 RMK AO2 T00530045
KCKP 240755Z AUTO 07007KT 7SM OVC024 06/05 A3001 RMK AO2 T00550045
KCKP 240735Z AUTO 07005KT 5SM -DZ OVC024 05/04 A3001 RMK AO2 T00530040
KCKP 240715Z AUTO 07006KT 10SM SCT024 BKN029 OVC041 06/04 A3001 RMK AO2 T00560038
KCKP 240655Z AUTO 06003KT 10SM SCT027 SCT033 OVC041 06/04 A3002 RMK AO2 T00570038
KCKP 240635Z AUTO 07004KT 10SM OVC033 06/04 A3002 RMK AO2 T00580040
KCKP 240615Z AUTO 06003KT 10SM OVC033 06/04 A3002 RMK AO2 T00590037
KCKP 240555Z AUTO 06005KT 10SM OVC037 06/04 A3002 RMK AO2 T00600036 10080 20058 401221013
KCKP 240535Z AUTO 04003KT 10SM OVC037 06/04 A3003 RMK AO2 T00610036
KCKP 240515Z AUTO 05003KT 10SM OVC035 06/04 A3004 RMK AO2 T00630036
KCKP 240455Z AUTO 05004KT 10SM OVC033 06/04 A3004 RMK AO2 T00630037
KCKP 240435Z AUTO 00000KT 10SM OVC033 06/04 A3004 RMK AO2 T00580037
KCKP 240415Z AUTO 08003KT 10SM OVC035 06/04 A3005 RMK AO2 T00610037
KCKP 240355Z AUTO 07004KT 10SM BKN033 OVC060 06/04 A3005 RMK AO2 T00610037
KCKP 240335Z AUTO 00000KT 10SM SCT033 OVC060 06/04 A3006 RMK AO2 T00630036
KCKP 240315Z AUTO 00000KT 10SM OVC060 07/03 A3005 RMK AO2 T00650032
KCKP 240255Z AUTO 06003KT 10SM OVC060 07/03 A3005 RMK AO2 T00670031
KCKP 240235Z AUTO 07005KT 10SM OVC060 07/04 A3004 RMK AO2 T00650035
KCKP 240215Z AUTO 08004KT 10SM OVC060 07/04 A3004 RMK AO2 T00660035
KCKP 240155Z AUTO 09004KT 10SM OVC060 07/03 A3005 RMK AO2 T00670033
KCKP 240135Z AUTO 09006KT 10SM OVC060 07/03 A3004 RMK AO2 T00700030
KCKP 240115Z AUTO 09007KT 10SM OVC070 07/03 A3004 RMK AO2 T00700032
KCKP 240055Z AUTO 09006KT 10SM OVC070 07/04 A3004 RMK AO2 T00720035
KCKP 240035Z AUTO 10007KT 10SM -DZ OVC070 08/03 A3005 RMK AO2 T00750032
KCKP 240015Z AUTO 10007KT 10SM OVC080 08/03 A3005 RMK AO2 T00760032
KCKP 232355Z AUTO 10005KT 10SM OVC080 08/03 A3005 RMK AO2 T00800032 10122 20080
KCKP 232335Z AUTO 12005KT 10SM OVC080 08/04 A3006 RMK AO2 T00830035
KCKP 232315Z AUTO 09007KT 10SM SCT047 SCT060 OVC080 09/05 A3005 RMK AO2 T00860045
KCKP 232255Z AUTO 07006KT 10SM -DZ BKN047 OVC060 09/05 A3005 RMK AO2 T00850045
KCKP 232235Z AUTO 09005KT 10SM -DZ OVC060 09/05 A3007 RMK AO2 T00900048
KCKP 232215Z AUTO 08005KT 10SM -DZ OVC060 09/05 A3008 RMK AO2 T00910049
KCKP 232155Z AUTO 09003KT 10SM -DZ OVC060 10/04 A3009 RMK AO2 T00950043
KCKP 232135Z AUTO 11003KT 10SM BKN060 BKN070 BKN095 10/04 A3008 RMK AO2 T01030037
KCKP 232115Z AUTO 13005KT 10SM -DZ BKN060 BKN070 OVC085 10/04 A3009 RMK AO2 T01000036
KCKP 232055Z AUTO 13007KT 10SM -RA OVC065 10/03 A3009 RMK AO2 T01040028
KCKP 232035Z AUTO 00000KT 10SM BKN065 BKN075 OVC090 11/03 A3009 RMK AO2 T01090028
KCKP 232015Z AUTO 12005KT 10SM SCT065 OVC090 11/02 A3008 RMK AO2 T01100021
KCKP 231955Z AUTO 12007KT 10SM SCT070 OVC100 11/02 A3009 RMK AO2 T01130021
KCKP 231935Z AUTO 13005KT 10SM BKN070 OVC100 11/03 A3010 RMK AO2 T01120025
KCKP 231915Z AUTO 13006KT 10SM BKN080 OVC090 11/03 A3011 RMK AO2 T01100026
KCKP 231855Z AUTO 13009KT 10SM OVC090 11/02 A3013 RMK AO2 T01140023
KCKP 231835Z AUTO 14007KT 10SM BKN100 BKN120 12/03 A3012 RMK AO2 T01150026
KCKP 231815Z AUTO 15009KT 10SM CLR 12/03 A3014 RMK AO2 T01160027
KCKP 231755Z AUTO 15010KT 10SM CLR 12/02 A3014 RMK AO2 T01210022 10121 20000
KCKP 231735Z AUTO 16009KT 10SM CLR 11/03 A3015 RMK AO2 T01120027
KCKP 231715Z AUTO 15009KT 10SM CLR 10/03 A3015 RMK AO2 T01030028
KCKP 231655Z AUTO 14008KT 10SM CLR 10/02 A3016 RMK AO2 T00960021
KCKP 231635Z AUTO 15009KT 10SM CLR 09/02 A3017 RMK AO2 T00900022
KCKP 231615Z AUTO 14007KT 10SM CLR 08/02 A3017 RMK AO2 T00780019
KCKP 231555Z AUTO 14010G14KT 10SM CLR 07/02 A3018 RMK AO2 T00710017
KCKP 231535Z AUTO 15008KT 10SM CLR 06/01 A3018 RMK AO2 T00590013
KCKP 231515Z AUTO 14009KT 10SM CLR 05/01 A3017 RMK AO2 T00510009
KCKP 231455Z AUTO 12006KT 10SM CLR 05/01 A3017 RMK AO2 T00460009
KCKP 231435Z AUTO 13007KT 10SM CLR 04/01 A3017 RMK AO2 T00380006
KCKP 231415Z AUTO 14006KT 10SM CLR 03/00 A3018 RMK AO2 T00290002
KCKP 231355Z AUTO 14005KT 10SM CLR 02/00 A3018 RMK AO2 T00220000